Latest Weather Observations for Mudgee

IDN60801

Issued at 10:05 am EST Wednesday 1 October 2014 (issued every 30 minutes, with the page automatically refreshed every 10 minutes)

About weather observations | Map of weather stations | Latest weather observations for NSW | Other Formats
Station Details ID: 062101 Name: MUDGEE AIRPORT AWS Lat: -32.56 Lon: 149.61 Height: 471.0 m
Data from the previous 72 hours. | See also: Recent months at Mudgee
Date/Time
EST
Temp
°C
App
Temp
°C
Dew
Point
Rel
Hum
%
Delta-T
°C
Wind Press
QNH
hPa
Press
MSL
hPa
Rain
since 9 am
mm
Dir
 
Spd
km/h
Gust
km/h
Spd
kts
Gust
kts
01/10:00am 15.1 7.2 -1.5 32 7.0 SW 30 39 16 21 1020.0 1019.1 0.0
01/09:30am 14.2 6.8 -0.6 36 6.3 SW 28 43 15 23 1019.9 1019.7 0.0
01/09:00am 13.7 6.0 -0.3 38 5.9 SW 30 43 16 23 1019.7 1019.5 0.0
01/08:30am 13.2 6.3 0.3 41 5.5 SSW 26 39 14 21 1019.5 1019.2 0.0
01/08:00am 12.6 5.8 0.7 44 5.1 SSW 26 33 14 18 1019.0 1018.8 0.0
01/07:30am 12.3 5.4 0.4 44 5.1 SSW 26 32 14 17 1018.7 1018.5 0.0
01/07:14am 11.7 3.6 -0.1 44 4.9 SSW 32 54 17 29 1018.5 1018.3 0.0
01/07:00am 11.7 3.7 0.5 46 4.8 SW 32 43 17 23 1018.4 1018.2 0.0
01/06:30am 11.7 4.9 1.1 48 4.6 SW 26 32 14 17 1017.9 1017.7 0.0
01/06:00am 11.8 4.9 0.0 44 5.0 SW 26 37 14 20 1017.5 1017.2 0.0
01/05:30am 11.9 6.3 1.0 47 4.7 SSW 20 30 11 16 1017.3 1017.0 0.0
01/05:00am 12.4 7.9 2.3 50 4.5 S 15 30 8 16 1016.6 1016.4 0.0
01/04:30am 12.6 8.0 3.8 55 4.1 SSW 17 28 9 15 1016.5 1016.3 0.0
01/04:00am 13.5 7.9 5.2 57 4.0 SSW 24 39 13 21 1015.8 1015.5 0.0
01/03:30am 14.2 9.5 5.3 55 4.3 S 19 26 10 14 1015.8 1015.5 0.0
01/03:00am 15.5 8.9 4.2 47 5.4 SSW 28 39 15 21 1015.3 1015.0 0.0
01/02:30am 16.7 9.9 3.0 40 6.4 SW 28 41 15 22 1014.5 1014.3 0.0
01/02:00am 17.8 12.8 1.3 33 7.5 SW 17 24 9 13 1013.7 1013.4 0.0
01/01:30am 19.2 13.5 2.6 33 7.9 W 22 32 12 17 1013.6 1013.3 0.0
01/01:00am 16.3 13.0 2.3 39 6.5 NNW 9 13 5 7 1013.3 1013.0 0.0
01/12:30am 17.5 13.9 3.0 38 6.8 N 11 13 6 7 1013.3 1013.0 0.0
01/12:00am 18.2 15.5 3.7 38 7.0 N 7 11 4 6 1013.4 1013.1 0.0
 
Date/Time
EST
Temp
°C
App
Temp
°C
Dew
Point
Rel
Hum
%
Delta-T
°C
Wind Press
QNH
hPa
Press
MSL
hPa
Rain
since 9 am
mm
Dir
 
Spd
km/h
Gust
km/h
Spd
kts
Gust
kts
30/11:30pm 17.7 14.7 3.9 40 6.6 N 9 13 5 7 1013.5 1013.2 0.0
30/11:00pm 18.0 14.8 4.9 42 6.4 N 11 15 6 8 1013.6 1013.3 0.0
30/10:30pm 18.1 14.8 4.3 40 6.7 N 11 13 6 7 1013.5 1013.2 0.0
30/10:00pm 18.4 15.0 4.2 39 6.9 N 11 15 6 8 1013.5 1013.2 0.0
30/09:30pm 18.6 15.3 4.4 39 6.9 N 11 13 6 7 1013.5 1013.2 0.0
30/09:00pm 18.5 15.3 5.0 41 6.7 N 11 11 6 6 1013.5 1013.2 0.0
30/08:30pm 18.3 15.4 4.5 40 6.7 N 9 11 5 6 1013.4 1013.1 0.0
30/08:00pm 19.1 15.7 4.1 37 7.3 N 11 13 6 7 1013.3 1013.0 0.0
30/07:30pm 21.8 18.4 3.9 31 8.9 N 11 13 6 7 1013.2 1012.9 0.0
30/07:00pm 22.6 19.6 4.2 30 9.2 N 9 9 5 5 1012.9 1012.6 0.0
30/06:30pm 23.7 19.9 4.1 28 9.9 NNW 13 17 7 9 1012.9 1012.6 0.0
30/06:00pm 25.5 20.0 4.0 25 10.9 NW 22 32 12 17 1012.7 1012.4 0.0
30/05:30pm 26.8 20.7 4.6 24 11.5 NW 26 37 14 20 1012.8 1012.5 0.0
30/05:10pm 26.8 20.2 4.0 23 11.7 NW 28 46 15 25 1012.9 1012.6 0.0
30/05:00pm 27.6 19.5 3.3 21 12.4 NW 35 46 19 25 1012.8 1012.5 0.0
30/04:30pm 28.6 20.0 2.7 19 13.1 NW 37 52 20 28 1012.5 1012.3 0.0
30/04:07pm 28.7 20.9 2.8 19 13.2 NW 33 52 18 28 1012.4 1012.2 0.0
30/04:00pm 29.1 21.2 4.6 21 12.9 NW 35 46 19 25 1012.5 1012.3 0.0
30/03:30pm 28.7 21.3 4.2 21 12.8 NNW 32 50 17 27 1012.5 1012.3 0.0
30/03:00pm 29.2 21.1 3.2 19 13.4 NNW 35 54 19 29 1012.8 1012.5 0.0
30/02:30pm 28.1 21.5 4.4 22 12.3 NNW 28 46 15 25 1013.4 1013.1 0.0
30/02:04pm 27.6 20.0 2.6 20 12.6 NW 32 50 17 27 1013.9 1013.6 0.0
30/02:00pm 27.6 19.1 1.2 18 13.0 NW 35 50 19 27 1013.9 1013.6 0.0
30/01:30pm 27.9 20.3 2.9 20 12.7 NW 32 46 17 25 1014.5 1014.3 0.0
30/01:00pm 29.1 21.1 3.9 20 13.1 NW 35 50 19 27 1014.3 1014.1 0.0
30/12:39pm 28.4 21.4 4.0 21 12.6 NW 30 52 16 28 1014.7 1014.5 0.0
30/12:30pm 28.2 22.3 5.7 24 12.0 NNW 26 37 14 20 1015.2 1014.9 0.0
30/12:00pm 27.3 20.1 6.1 26 11.3 NNW 33 50 18 27 1015.7 1015.4 0.0
30/11:30am 26.4 18.7 5.4 26 11.0 NNW 35 56 19 30 1016.0 1015.7 0.0
30/11:25am 26.7 19.4 5.6 26 11.1 NNW 33 56 18 30 1016.1 1015.9 0.0
30/11:00am 28.3 22.3 8.6 29 11.0 NNW 30 43 16 23 1016.5 1016.3 0.0
30/10:30am 27.1 21.5 7.0 28 10.9 N 26 35 14 19 1016.7 1016.5 0.0
30/10:00am 26.1 21.0 7.7 31 10.0 NNW 24 35 13 19 1017.3 1017.0 0.0
30/09:30am 24.6 20.9 9.3 38 8.5 NNW 19 24 10 13 1017.7 1017.4 0.0
30/09:00am 21.5 20.8 8.4 43 7.0 SSW 2 7 1 4 1018.0 1017.8 0.0
30/08:30am 18.7 17.8 10.5 59 4.5 SSW 6 7 3 4 1017.9 1017.7 0.0
30/08:00am 15.3 15.2 9.4 68 3.1 CALM 0 0 0 0 1017.9 1017.7 0.0
30/07:30am 13.5 13.2 8.8 73 2.4 CALM 0 0 0 0 1017.7 1017.4 0.0
30/07:00am 10.6 10.1 8.0 84 1.3 CALM 0 0 0 0 1017.8 1017.5 0.0
30/06:30am 8.2 7.4 6.7 90 0.7 CALM 0 0 0 0 1017.5 1017.2 0.0
30/06:00am 7.5 6.5 5.5 87 0.9 CALM 0 0 0 0 1017.3 1017.0 0.0
30/05:30am 7.9 6.9 5.7 86 1.0 CALM 0 0 0 0 1016.8 1016.6 0.0
30/05:00am 8.1 7.2 6.1 87 0.9 CALM 0 0 0 0 1016.6 1016.4 0.0
30/04:30am 7.5 6.4 5.1 85 1.1 CALM 0 7 0 4 1016.6 1016.4 0.0
30/04:00am 8.1 7.0 5.2 82 1.3 CALM 0 0 0 0 1016.6 1016.4 0.0
30/03:30am 8.6 7.6 5.4 80 1.5 CALM 0 0 0 0 1016.8 1016.6 0.0
30/03:00am 9.3 8.4 5.9 79 1.6 CALM 0 0 0 0 1016.9 1016.7 0.0
30/02:30am 8.9 7.5 5.3 78 1.7 N 2 6 1 3 1017.2 1016.9 0.0
30/02:00am 9.8 8.0 5.6 75 2.0 NNW 4 7 2 4 1017.2 1016.9 0.0
30/01:30am 10.5 9.6 6.1 74 2.1 CALM 0 0 0 0 1017.5 1017.2 0.0
30/01:00am 10.8 9.9 6.2 73 2.2 CALM 0 0 0 0 1017.5 1017.2 0.0
30/12:30am 11.2 10.3 6.1 71 2.4 CALM 0 0 0 0 1017.8 1017.5 0.0
30/12:00am 11.3 10.5 6.4 72 2.4 CALM 0 0 0 0 1017.9 1017.7 0.0
 
Date/Time
EST
Temp
°C
App
Temp
°C
Dew
Point
Rel
Hum
%
Delta-T
°C
Wind Press
QNH
hPa
Press
MSL
hPa
Rain
since 9 am
mm
Dir
 
Spd
km/h
Gust
km/h
Spd
kts
Gust
kts
29/11:30pm 11.1 10.1 5.6 69 2.6 CALM 0 0 0 0 1018.1 1017.9 0.0
29/11:00pm 12.7 11.8 6.1 64 3.2 CALM 0 0 0 0 1018.2 1018.0 0.0
29/10:30pm 13.1 12.1 5.8 61 3.5 CALM 0 6 0 3 1018.3 1018.1 0.0
29/10:00pm 13.8 12.9 5.9 59 3.8 CALM 0 0 0 0 1018.6 1018.4 0.0
29/09:30pm 13.4 11.2 6.0 61 3.6 ENE 7 11 4 6 1018.5 1018.3 0.0
29/09:00pm 12.6 9.2 6.0 64 3.2 NNE 13 15 7 8 1018.4 1018.2 0.0
29/08:30pm 12.9 9.5 6.0 63 3.3 NE 13 15 7 8 1018.2 1018.0 0.0
29/08:00pm 14.2 10.5 6.1 58 4.0 NE 15 15 8 8 1018.0 1017.8 0.0
29/07:30pm 15.6 12.6 6.1 53 4.7 NNE 11 13 6 7 1017.7 1017.4 0.0
29/07:00pm 17.7 14.7 4.3 41 6.5 N 9 11 5 6 1017.3 1017.0 0.0
29/06:30pm 21.4 18.5 4.9 34 8.3 N 9 11 5 6 1016.7 1016.5 0.0
29/06:00pm 22.8 19.9 4.8 31 9.1 NW 9 11 5 6 1016.5 1016.3 0.0
29/05:30pm 24.5 21.5 5.8 30 9.8 WNW 11 15 6 8 1016.2 1016.0 0.0
29/05:00pm 26.0 22.5 5.6 27 10.7 WNW 13 22 7 12 1015.9 1015.6 0.0
29/04:30pm 26.6 21.7 5.0 25 11.3 WNW 20 26 11 14 1015.8 1015.5 0.0
29/04:00pm 27.0 21.6 4.7 24 11.6 WNW 22 33 12 18 1015.8 1015.5 0.0
29/03:30pm 27.0 22.6 4.7 24 11.6 WNW 17 24 9 13 1015.7 1015.4 0.0
29/03:00pm 27.4 22.2 5.6 25 11.5 W 22 28 12 15 1015.7 1015.4 0.0
29/02:30pm 27.1 21.6 4.2 23 11.8 W 22 30 12 16 1015.8 1015.5 0.0
29/02:00pm 26.8 19.9 4.6 24 11.5 WNW 30 39 16 21 1016.0 1015.7 0.0
29/01:30pm 27.1 21.9 5.4 25 11.4 NW 22 35 12 19 1016.2 1016.0 0.0
29/01:00pm 26.2 20.4 4.6 25 11.1 WNW 24 35 13 19 1016.5 1016.3 0.0
29/12:30pm 26.3 20.2 4.7 25 11.2 W 26 37 14 20 1016.9 1016.7 0.0
29/12:00pm 25.5 19.1 5.1 27 10.6 WNW 28 37 15 20 1017.3 1017.0 0.0
29/11:30am 24.8 18.6 4.5 27 10.4 W 26 39 14 21 1017.6 1017.3 0.0
29/11:00am 24.7 20.2 6.9 32 9.5 W 20 28 11 15 1017.9 1017.7 0.0
29/10:30am 23.7 18.2 6.0 32 9.2 NW 24 32 13 17 1018.1 1017.9 0.0
29/10:00am 22.3 17.8 6.9 37 8.1 NNW 20 28 11 15 1018.4 1018.2 0.0
29/09:30am 20.2 16.9 6.2 40 7.2 NW 13 20 7 11 1018.7 1018.5 0.0
29/09:00am 18.4 15.8 6.3 45 6.1 NNW 9 15 5 8 1018.7 1018.5 0.0
29/08:30am 15.4 13.5 7.7 60 3.9 N 7 9 4 5 1018.9 1018.7 0.0
29/08:00am 12.5 11.4 7.0 69 2.7 NNW 2 7 1 4 1018.9 1018.7 0.0
29/07:30am 9.9 8.8 7.0 82 1.4 NNW 2 6 1 3 1018.8 1018.6 0.0
29/07:00am 7.9 7.1 6.4 90 0.7 CALM 0 4 0 2 1018.8 1018.6 0.0
29/06:30am 5.9 3.7 5.2 95 0.3 NE 6 9 3 5 1018.6 1018.4 0.0
29/06:00am 4.1 2.6 3.1 93 0.4 CALM 0 0 0 0 1018.5 1018.3 0.0
29/05:30am 4.6 3.2 3.6 93 0.4 CALM 0 0 0 0 1018.2 1018.0 0.0
29/05:00am 4.6 2.1 3.6 93 0.4 S 6 7 3 4 1017.9 1017.7 0.0
29/04:30am 4.3 2.9 3.4 94 0.4 CALM 0 2 0 1 1017.9 1017.7 0.0
29/04:00am 4.7 2.0 3.7 93 0.4 NNE 7 11 4 6 1018.1 1017.9 0.0
29/03:30am 5.2 3.9 3.9 91 0.6 CALM 0 0 0 0 1018.2 1018.0 0.0
29/03:00am 6.1 4.5 4.6 90 0.7 NE 2 7 1 4 1018.2 1018.0 0.0
29/02:30am 6.3 5.1 4.5 88 0.8 CALM 0 6 0 3 1018.1 1017.9 0.0
29/02:00am 6.6 5.4 4.6 87 0.9 CALM 0 7 0 4 1018.2 1018.0 0.0
29/01:30am 6.8 4.3 4.5 85 1.0 NNE 7 9 4 5 1018.3 1018.1 0.0
29/01:00am 7.1 5.0 4.1 81 1.3 SSE 4 11 2 6 1018.7 1018.5 0.0
29/12:30am 7.0 2.9 4.1 82 1.3 NNE 15 20 8 11 1018.7 1018.5 0.0
29/12:00am 7.7 4.8 4.5 80 1.4 ENE 9 13 5 7 1019.4 1019.1 0.0
 
Date/Time
EST
Temp
°C
App
Temp
°C
Dew
Point
Rel
Hum
%
Delta-T
°C
Wind Press
QNH
hPa
Press
MSL
hPa
Rain
since 9 am
mm
Dir
 
Spd
km/h
Gust
km/h
Spd
kts
Gust
kts
28/11:30pm 7.7 3.3 4.8 82 1.3 NNE 17 19 9 10 1019.5 1019.2 0.0
28/11:00pm 7.6 3.5 4.6 81 1.3 NNE 15 17 8 9 1019.5 1019.2 0.0
28/10:30pm 7.9 4.2 4.5 79 1.5 NE 13 15 7 8 1019.5 1019.2 0.0
28/10:00pm 8.9 5.6 4.7 75 1.9 NE 11 13 6 7 1019.4 1019.1 0.0
28/09:30pm 9.3 5.3 4.9 74 2.0 NNE 15 15 8 8 1019.2 1019.0 0.0
28/09:00pm 9.3 6.4 4.5 72 2.2 NE 9 13 5 7 1019.2 1019.0 0.0
28/08:30pm 11.1 8.6 5.0 66 2.9 NE 7 7 4 4 1018.9 1018.7 0.0
28/08:00pm 12.3 10.5 5.5 63 3.2 W 4 9 2 5 1018.5 1018.3 0.0
28/07:30pm 13.5 10.3 5.2 57 4.0 NE 11 15 6 8 1018.1 1017.9 0.0
28/07:00pm 14.8 11.5 4.8 51 4.8 NE 11 13 6 7 1017.6 1017.3 0.0
28/06:30pm 18.1 15.4 3.9 39 6.9 NW 7 11 4 6 1017.6 1017.3 0.0
28/06:00pm 20.0 17.6 4.1 35 7.8 NNW 6 7 3 4 1017.4 1017.1 0.0
28/05:30pm 21.1 18.3 5.1 35 8.1 NNW 9 11 5 6 1017.4 1017.1 0.0
28/05:00pm 22.4 19.5 4.5 31 9.0 NNW 9 13 5 7 1017.5 1017.2 0.0
28/04:30pm 22.7 20.2 4.7 31 9.1 N 7 15 4 8 1017.7 1017.4 0.0
28/04:00pm 22.2 18.9 4.7 32 8.8 NNW 11 17 6 9 1017.9 1017.7 0.0
28/03:30pm 22.6 17.9 5.1 32 8.9 NW 19 22 10 12 1018.1 1017.9 0.0
28/03:00pm 22.3 18.2 4.4 31 9.0 WNW 15 20 8 11 1018.3 1018.1 0.0
28/02:30pm 22.5 17.6 4.1 30 9.2 WNW 19 26 10 14 1018.5 1018.3 0.0
28/02:00pm 22.2 17.6 3.8 30 9.1 WNW 17 24 9 13 1019.0 1018.8 0.0
28/01:30pm 21.5 18.2 4.6 33 8.5 NW 11 19 6 10 1019.6 1019.3 0.0
28/01:00pm 21.6 18.2 5.9 36 8.0 N 13 20 7 11 1020.1 1019.9 0.0
28/12:30pm 21.0 18.3 5.4 36 7.9 NW 9 20 5 11 1020.6 1020.4 0.0
28/12:00pm 20.6 18.6 7.2 42 7.0 NW 7 13 4 7 1021.1 1020.9 0.0
28/11:30am 19.9 17.8 6.6 42 6.8 SW 7 13 4 7 1021.5 1021.4 0.0
28/11:00am 19.2 17.1 5.6 41 6.8 WNW 6 9 3 5 1021.9 1021.7 0.0
28/10:30am 18.9 16.9 7.0 46 6.1 WNW 7 11 4 6 1022.3 1022.1 0.0

Other Formats:

Comma delimited format used in spreadsheet applications
http://www.bom.gov.au/fwo/IDN60801/IDN60801.94727.axf

JavaScript Object Notation format (JSON) in row-major order
http://www.bom.gov.au/fwo/IDN60801/IDN60801.94727.json